< < Back
Terminal Aerodrome Forecast


Current Version              Previous Versions:   1  2  3  4  5  6  7  8  9  

Terminal Aerodrome Forecast

088
FTUS42 KTAE 210100 AAB
TAFDHN
TAF AMD
KDHN 210103Z 2101/2124 03006KT P6SM BKN010 OVC030
     FM211000 06007KT P6SM OVC005
     FM211800 07005KT 6SM -RA OVC010=

Latest METAR

022
SAUS70 KWBC 211400 RRD
MTRDHN
METAR KDHN 211353Z 06008KT 10SM BKN010 OVC021 12/11 A3016 RMK AO2 SLP210
T01170106


USA.gov is the U.S. government's official web portal to all federal, state and local government web resources and services.